• Join FlightAware (Why Join?)
  • Login
  • US Flag 
11:29AM EST


 

Airport Tracker/Info


-or-


 

Live Flight TrackerFlight Track Log ✈ SWA3853 ✈ 08-May-2013 ✈ KBNA - KMCI

Flight Track Log - Related Links

Times and Time Zones

All times are in EDT time to prevent confusion due to time zone crossing. See the SWA3853 flight status page for this flight to view local times or setup timezone preferences in your user account.

Time Position Orientation Groundspeed Altitude Reporting Facility
EDT Latitude Longitude Course Direction KTS MPH feet Rate Location/Type
12:54PM 36.1500 -86.7667 270° West 227 261 3,200  Level Nashville TRACON
12:55PM 36.1667 -86.8500 284° West 271 312 6,200 3,420 Climbing Nashville TRACON
12:56PM 36.2000 -86.9333 296° West 273 314 10,200 3,240 Climbing Nashville TRACON
12:56PM 36.2067 -86.9900 278° West 290 334 10,900 2,700 Climbing Memphis Center
12:57PM 36.2367 -87.1044 288° West 335 386 14,200 3,300 Climbing Memphis Center
12:58PM 36.2689 -87.2217 289° West 357 411 17,600 3,060 Climbing Memphis Center
12:59PM 36.2908 -87.3469 282° West 368 423 20,400 2,760 Climbing Memphis Center
01:00PM 36.3128 -87.4775 282° West 381 438 23,200 2,400 Climbing Memphis Center
01:01PM 36.3528 -87.5919 293° West 393 452 25,300 2,100 Climbing Memphis Center
01:02PM 36.4097 -87.7164 300° West 403 464 27,500 1,320 Climbing Memphis Center
01:03PM 36.4667 -87.8411 300° West 412 474 28,000 1,200 Climbing Memphis Center
01:04PM 36.5211 -87.9683 298° West 421 484 29,900 2,100 Climbing Memphis Center
01:05PM 36.5797 -88.0933 300° West 421 484 32,200 1,980 Climbing Memphis Center
01:06PM 36.6383 -88.2158 301° West 416 479 33,900 1,620 Climbing Memphis Center
01:07PM 36.6678 -88.3600 284° West 411 473 35,500 1,560 Climbing Memphis Center
01:08PM 36.6908 -88.5017 282° West 416 479 37,100 1,500 Climbing Memphis Center
01:09PM 36.7136 -88.6408 282° West 424 488 38,500 1,200 Climbing Memphis Center
01:10PM 36.7342 -88.7828 280° West 424 488 39,500 720 Climbing Memphis Center
01:11PM 36.7569 -88.9222 282° West 424 488 40,000 240 Climbing Memphis Center
01:12PM 36.7792 -89.0642 281° West 424 488 40,000  Level Memphis Center
01:13PM 36.7994 -89.2064 280° West 424 488 40,000  Level Memphis Center
01:14PM 36.8236 -89.3461 282° West 424 488 40,000  Level Memphis Center
01:15PM 36.8414 -89.4858 279° West 424 488 40,000  Level Memphis Center
01:16PM 36.8631 -89.6308 281° West 424 488 40,000  Level Memphis Center
01:17PM 36.8825 -89.7681 280° West 424 488 40,000  Level Memphis Center
01:18PM 36.9039 -89.9106 281° West 419 482 40,000  Level Memphis Center
01:19PM 36.9231 -90.0506 280° West 419 482 40,000  Level Memphis Center
01:20PM 36.9442 -90.1881 281° West 414 476 40,000  Level Memphis Center
01:21PM 36.9611 -90.3283 279° West 409 471 40,000  Level Memphis Center
01:23PM 37.0031 -90.5942 281° West 407 468 40,000  Level Kansas City Center
01:24PM 37.0267 -90.7636 280° West 412 474 40,000  Level Kansas City Center
01:25PM 37.0461 -90.9036 280° West 410 472 40,000  Level Kansas City Center
01:26PM 37.0661 -91.0433 280° West 408 470 40,000  Level Kansas City Center
01:27PM 37.0828 -91.1767 279° West 411 473 40,000  Level Kansas City Center
01:28PM 37.1056 -91.3461 280° West 411 473 40,000  Level Kansas City Center
01:29PM 37.1556 -91.4756 296° West 412 474 40,000  Level Kansas City Center
01:30PM 37.2094 -91.6011 298° West 410 472 40,000  Level Kansas City Center
01:32PM 37.2642 -91.7272 299° West 409 471 40,000  Level Kansas City Center
01:33PM 37.3197 -91.8542 299° West 412 474 40,000  Level Kansas City Center
01:34PM 37.3736 -91.9800 298° West 409 471 40,000  Level Kansas City Center
01:35PM 37.4281 -92.1064 299° West 408 470 40,000  Level Kansas City Center
01:36PM 37.4819 -92.2333 298° West 409 471 40,000  Level Kansas City Center
01:37PM 37.5472 -92.3869 298° West 410 472 40,000  Level Kansas City Center
01:38PM 37.6028 -92.5164 298° West 413 475 40,000  Level Kansas City Center
01:39PM 37.6581 -92.6506 298° West 418 481 40,000  Level Kansas City Center
01:40PM 37.7125 -92.7806 298° West 418 481 40,000  Level Kansas City Center
01:41PM 37.7694 -92.9136 298° West 422 486 40,000  Level Kansas City Center
01:42PM 37.8256 -93.0486 298° West 427 491 40,000  Level Kansas City Center
01:43PM 37.8819 -93.1850 298° West 432 497 40,000  Level Kansas City Center
01:44PM 37.9375 -93.3183 298° West 428 493 40,000 -1,020 Level Kansas City Center
01:45PM 38.0025 -93.4744 298° West 418 481 37,900 -2,280 Descending Kansas City Center
01:46PM 38.0536 -93.6008 297° West 405 466 35,300 -2,760 Descending Kansas City Center
01:47PM 38.1053 -93.7283 297° West 404 465 32,300 -2,580 Descending Kansas City Center
01:48PM 38.2031 -93.8058 328° Northwest 413 475 30,000 -2,280 Descending Kansas City Center
01:49PM 38.3097 -93.8694 335° Northwest 421 484 27,600 -2,280 Descending Kansas City Center
01:50PM 38.4164 -93.9281 337° Northwest 417 480 25,300 -2,280 Descending Kansas City Center
01:51PM 38.5258 -93.9908 336° Northwest 407 468 22,900 -2,280 Descending Kansas City Center
01:52PM 38.6325 -94.0542 335° Northwest 382 440 20,600 -2,100 Descending Kansas City Center
01:53PM 38.7175 -94.1153 331° Northwest 369 425 18,600 -1,980 Descending Kansas City Center
01:54PM 38.7886 -94.1964 318° Northwest 358 412 16,600 -2,100 Descending Kansas City Center
01:55PM 38.8714 -94.2864 320° Northwest 350 403 14,300 -2,040 Descending Kansas City Center
01:56PM 38.9394 -94.3608 320° Northwest 338 389 12,400 -1,140 Descending Kansas City Center
01:57PM 39.0150 -94.4417 320° Northwest 316 364 12,000 -240 Descending Kansas City Center
01:58PM 39.0728 -94.5050 320° Northwest 289 333 12,000  Level Kansas City Center
01:59PM 39.1378 -94.5756 320° Northwest 274 315 12,000 -360 Level Kansas City Center
02:00PM 39.1922 -94.6297 322° Northwest 260 299 11,300 -1,200 Descending Kansas City Center
02:02PM 39.2675 -94.6094 12° North 252 290 9,500 -1,680 Descending Kansas City Center
02:03PM 39.3317 -94.5878 15° North 249 287 7,800 -1,800 Descending Kansas City Center
02:04PM 39.4064 -94.5619 15° North 250 288 5,800 -1,800 Descending Kansas City Center
02:05PM 39.4281 -94.6150 298° West 224 258 4,200 -1,620 Descending Kansas City Center
02:06PM 39.3936 -94.6781 235° Southwest 190 219 2,500 -1,140 Descending Kansas City Center
02:07PM 39.3556 -94.6869 190° South 145 167 1,900 -720 Descending Kansas City Center
02:08PM 39.3133 -94.6997 193° South 139 160 1,100 -780 Descending Kansas City Center